Terminal Aerodrome Forecast
Issued by NWS

Home | Current Version | Previous Version | Text Only | Print | Product List | Glossary On
Versions: 1 2 3 4 5 6 7 8 9 10 11 12 13 14 15
000
FTUS45 KRIW 151700
TAFCPR
TAF
KCPR 151728Z 1518/1618 02016KT P6SM VCSH OVC014
     FM152300 34012G22KT 1SM -SN SCT005 OVC010
     FM160900 33010KT 3SM -SN SCT010 OVC020=

USA.gov is the U.S. government's official web portal to all federal, state and local government web resources and services.